Watertown, WI

7:54 PM CDT on October 01, 2014 (GMT -0500)
Lake Country Estates | Change Station
CLOSE
Current Station
Personal Weather Station
Location: Nashotah, WI
Elevation: 928 ft
Nearby Weather Stations

Elev 928 ft 43.09 °N, 88.40 °W | Updated 8 seconds ago

Overcast
Overcast
60.1 °F
Feels Like 60.1 °F
N
4.3
Wind Variable Wind from SE
Gusts 8.1 mph

Today
High -- | Low -- °F
--% Chance of Precip.
Yesterday
High -- | Low -- °F
Precip. -- in
6:52 AM 6:36 PM
First Quarter, 53% visible
Pressure 29.90 in
Visibility 10.0 miles
Clouds Overcast 8500 ft
Dew Point 53 °F
Humidity 77%
Rainfall 0.01 in
Snow Depth Not available.
UV 0 out of 12
Pollen 3.00 out of 12
Air Quality Not available.
Flu Activity Not available.
METAR KRYV 020035Z AUTO 12004KT 10SM OVC085 15/12 A2990 RMK AO2 T01500120

More Conditions Fewer Conditions

Pressure 29.90 in
Visibility 10.0 miles
Clouds Overcast 8500 ft
Dew Point 53 °F
Humidity 77%
Rainfall 0.01 in
Snow Depth Not available.
UV 0 out of 12
Pollen 3.00 out of 12
Air Quality Not available.
Flu Activity Not available.
METAR KRYV 020035Z AUTO 12004KT 10SM OVC085 15/12 A2990 RMK AO2 T01500120

More Conditions Fewer Conditions

10-Day Weather Forecast

Almanac

Astronomy

Oct. 01, 2014 Rise Set
Actual Time 6:52 AM CDT 6:36 PM CDT
Civil Twilight 6:23 AM CDT 7:04 PM CDT
Nautical Twilight 5:50 AM CDT 7:37 PM CDT
Astronomical Twilight 5:17 AM CDT 8:10 PM CDT
Moon 2:00 PM CDT (10/1) No Moon Set
Length of Visible Light 12h 40m
Length of Day
11h 43m
Tomorrow will be 2m 54s shorter.
First Quarter, 53% of the Moon is Illuminated
Today
First Quarter
Oct 8
Full
Oct 15
Last Quarter
Oct 23
New
Oct 30
First Quarter

Today's Extremes

State Highs State Lows

Community

WunderPhotos

Upload Photos

1,758,105 photos uploaded!

WunderBlogs® & News

Nearby

Snow Depth

Station Depth Elevation
No new snow has been reported.

Earthquake Activity

City Distance Mag. Time & Date
No recent earthquake activity has been reported nearby.
Minimum magnitude displayed is 2.5.

Coastal Water Temperatures

Place Temperature
No Stations Reporting

Nearby Weather Stations